sensor_id;sensor_type;location;lat;lon;timestamp;P1;durP1;ratioP1;P2;durP2;ratioP2
9374;SDS011;4727;51.202;6.344;2022-12-24T00:00:32;20.13;;;6.00;;
9374;SDS011;4727;51.202;6.344;2022-12-24T00:02:58;20.87;;;6.90;;
9374;SDS011;4727;51.202;6.344;2022-12-24T00:05:24;23.17;;;6.23;;
9374;SDS011;4727;51.202;6.344;2022-12-24T00:07:50;17.37;;;5.53;;
9374;SDS011;4727;51.202;6.344;2022-12-24T00:10:16;18.50;;;6.17;;
9374;SDS011;4727;51.202;6.344;2022-12-24T00:12:42;25.87;;;6.87;;
9374;SDS011;4727;51.202;6.344;2022-12-24T00:15:08;19.27;;;5.70;;
9374;SDS011;4727;51.202;6.344;2022-12-24T00:17:34;22.53;;;5.97;;
9374;SDS011;4727;51.202;6.344;2022-12-24T00:20:00;24.87;;;6.07;;
9374;SDS011;4727;51.202;6.344;2022-12-24T00:22:28;27.67;;;6.40;;
9374;SDS011;4727;51.202;6.344;2022-12-24T00:24:54;23.30;;;6.07;;
9374;SDS011;4727;51.202;6.344;2022-12-24T00:27:20;21.27;;;5.80;;
9374;SDS011;4727;51.202;6.344;2022-12-24T00:29:46;23.13;;;6.47;;
9374;SDS011;4727;51.202;6.344;2022-12-24T00:32:12;24.80;;;6.77;;
9374;SDS011;4727;51.202;6.344;2022-12-24T00:34:38;27.73;;;7.27;;
9374;SDS011;4727;51.202;6.344;2022-12-24T00:37:05;23.57;;;5.97;;
9374;SDS011;4727;51.202;6.344;2022-12-24T00:39:31;25.10;;;6.73;;
9374;SDS011;4727;51.202;6.344;2022-12-24T00:41:57;23.70;;;6.90;;
9374;SDS011;4727;51.202;6.344;2022-12-24T00:44:23;19.77;;;5.70;;
9374;SDS011;4727;51.202;6.344;2022-12-24T00:46:49;22.97;;;6.23;;
9374;SDS011;4727;51.202;6.344;2022-12-24T00:49:15;30.10;;;6.97;;
9374;SDS011;4727;51.202;6.344;2022-12-24T00:51:41;25.47;;;6.70;;
9374;SDS011;4727;51.202;6.344;2022-12-24T00:54:07;24.57;;;6.50;;
9374;SDS011;4727;51.202;6.344;2022-12-24T00:56:33;28.37;;;6.97;;
9374;SDS011;4727;51.202;6.344;2022-12-24T00:58:59;21.13;;;6.30;;
9374;SDS011;4727;51.202;6.344;2022-12-24T01:01:25;30.93;;;7.73;;
9374;SDS011;4727;51.202;6.344;2022-12-24T01:03:51;26.03;;;7.40;;
9374;SDS011;4727;51.202;6.344;2022-12-24T01:06:37;21.97;;;5.87;;
9374;SDS011;4727;51.202;6.344;2022-12-24T01:09:03;23.57;;;6.17;;
9374;SDS011;4727;51.202;6.344;2022-12-24T01:11:31;26.73;;;7.70;;
9374;SDS011;4727;51.202;6.344;2022-12-24T01:13:57;26.20;;;7.07;;
9374;SDS011;4727;51.202;6.344;2022-12-24T01:16:23;23.27;;;7.33;;
9374;SDS011;4727;51.202;6.344;2022-12-24T01:18:49;20.20;;;5.80;;
9374;SDS011;4727;51.202;6.344;2022-12-24T01:21:15;26.47;;;6.80;;
9374;SDS011;4727;51.202;6.344;2022-12-24T01:23:41;20.90;;;5.97;;
9374;SDS011;4727;51.202;6.344;2022-12-24T01:26:08;22.27;;;6.57;;
9374;SDS011;4727;51.202;6.344;2022-12-24T01:28:36;19.63;;;5.70;;
9374;SDS011;4727;51.202;6.344;2022-12-24T01:31:04;26.10;;;6.60;;
9374;SDS011;4727;51.202;6.344;2022-12-24T01:33:34;20.43;;;6.33;;
9374;SDS011;4727;51.202;6.344;2022-12-24T01:36:01;28.37;;;7.17;;
9374;SDS011;4727;51.202;6.344;2022-12-24T01:38:27;26.87;;;6.43;;
9374;SDS011;4727;51.202;6.344;2022-12-24T01:40:53;25.33;;;6.37;;
9374;SDS011;4727;51.202;6.344;2022-12-24T01:43:38;21.67;;;5.63;;
9374;SDS011;4727;51.202;6.344;2022-12-24T01:46:23;20.30;;;6.13;;
9374;SDS011;4727;51.202;6.344;2022-12-24T01:48:55;25.53;;;6.80;;
9374;SDS011;4727;51.202;6.344;2022-12-24T01:53:57;20.90;;;6.07;;
9374;SDS011;4727;51.202;6.344;2022-12-24T01:56:24;22.23;;;5.83;;
9374;SDS011;4727;51.202;6.344;2022-12-24T01:58:52;19.97;;;6.47;;
9374;SDS011;4727;51.202;6.344;2022-12-24T02:01:20;18.27;;;5.50;;
9374;SDS011;4727;51.202;6.344;2022-12-24T02:03:46;24.20;;;5.80;;
9374;SDS011;4727;51.202;6.344;2022-12-24T02:06:12;23.70;;;6.53;;
9374;SDS011;4727;51.202;6.344;2022-12-24T02:08:39;24.13;;;5.43;;
9374;SDS011;4727;51.202;6.344;2022-12-24T02:11:12;23.70;;;7.10;;
9374;SDS011;4727;51.202;6.344;2022-12-24T02:13:39;21.40;;;5.53;;
9374;SDS011;4727;51.202;6.344;2022-12-24T02:21:31;29.17;;;7.10;;
9374;SDS011;4727;51.202;6.344;2022-12-24T02:34:50;25.37;;;6.40;;
9374;SDS011;4727;51.202;6.344;2022-12-24T02:37:27;22.90;;;6.07;;
9374;SDS011;4727;51.202;6.344;2022-12-24T02:40:00;27.57;;;6.30;;
9374;SDS011;4727;51.202;6.344;2022-12-24T02:42:30;18.87;;;5.60;;
9374;SDS011;4727;51.202;6.344;2022-12-24T02:45:00;23.17;;;6.17;;
9374;SDS011;4727;51.202;6.344;2022-12-24T02:47:27;21.33;;;5.43;;
9374;SDS011;4727;51.202;6.344;2022-12-24T02:49:54;24.93;;;6.37;;
9374;SDS011;4727;51.202;6.344;2022-12-24T02:52:27;28.73;;;6.53;;
9374;SDS011;4727;51.202;6.344;2022-12-24T02:54:53;19.80;;;5.70;;
9374;SDS011;4727;51.202;6.344;2022-12-24T02:57:23;23.53;;;6.03;;
9374;SDS011;4727;51.202;6.344;2022-12-24T02:59:58;18.47;;;5.23;;
9374;SDS011;4727;51.202;6.344;2022-12-24T03:02:34;23.20;;;6.53;;
9374;SDS011;4727;51.202;6.344;2022-12-24T03:12:54;21.37;;;5.40;;
9374;SDS011;4727;51.202;6.344;2022-12-24T03:15:21;20.77;;;5.67;;
9374;SDS011;4727;51.202;6.344;2022-12-24T03:17:49;22.80;;;6.47;;
9374;SDS011;4727;51.202;6.344;2022-12-24T03:20:21;21.70;;;5.50;;
9374;SDS011;4727;51.202;6.344;2022-12-24T03:22:50;15.73;;;4.93;;
9374;SDS011;4727;51.202;6.344;2022-12-24T03:25:16;16.13;;;5.73;;
9374;SDS011;4727;51.202;6.344;2022-12-24T03:27:42;16.07;;;5.07;;
9374;SDS011;4727;51.202;6.344;2022-12-24T03:30:11;13.33;;;4.50;;
9374;SDS011;4727;51.202;6.344;2022-12-24T03:32:38;16.17;;;4.87;;
9374;SDS011;4727;51.202;6.344;2022-12-24T03:35:05;17.53;;;4.97;;
9374;SDS011;4727;51.202;6.344;2022-12-24T03:37:31;14.70;;;5.43;;
9374;SDS011;4727;51.202;6.344;2022-12-24T03:39:57;15.83;;;4.50;;
9374;SDS011;4727;51.202;6.344;2022-12-24T03:42:23;21.00;;;5.00;;
9374;SDS011;4727;51.202;6.344;2022-12-24T03:44:49;10.63;;;4.30;;
9374;SDS011;4727;51.202;6.344;2022-12-24T03:47:15;18.20;;;4.87;;
9374;SDS011;4727;51.202;6.344;2022-12-24T03:49:41;19.67;;;4.57;;
9374;SDS011;4727;51.202;6.344;2022-12-24T03:52:07;15.97;;;5.10;;
9374;SDS011;4727;51.202;6.344;2022-12-24T03:54:33;17.30;;;5.03;;
9374;SDS011;4727;51.202;6.344;2022-12-24T03:56:59;13.73;;;4.67;;
9374;SDS011;4727;51.202;6.344;2022-12-24T03:59:25;13.83;;;4.80;;
9374;SDS011;4727;51.202;6.344;2022-12-24T04:01:51;15.80;;;4.30;;
9374;SDS011;4727;51.202;6.344;2022-12-24T04:04:17;16.40;;;5.43;;
9374;SDS011;4727;51.202;6.344;2022-12-24T04:06:43;15.83;;;4.50;;
9374;SDS011;4727;51.202;6.344;2022-12-24T04:09:09;18.10;;;4.63;;
9374;SDS011;4727;51.202;6.344;2022-12-24T04:11:35;16.67;;;4.60;;
9374;SDS011;4727;51.202;6.344;2022-12-24T04:14:01;15.07;;;3.87;;
9374;SDS011;4727;51.202;6.344;2022-12-24T04:16:27;17.47;;;4.83;;
9374;SDS011;4727;51.202;6.344;2022-12-24T04:18:53;12.20;;;3.83;;
9374;SDS011;4727;51.202;6.344;2022-12-24T04:21:19;22.03;;;4.90;;
9374;SDS011;4727;51.202;6.344;2022-12-24T04:23:45;20.07;;;5.73;;
9374;SDS011;4727;51.202;6.344;2022-12-24T04:26:12;12.13;;;3.97;;
9374;SDS011;4727;51.202;6.344;2022-12-24T04:28:39;13.40;;;4.30;;
9374;SDS011;4727;51.202;6.344;2022-12-24T04:31:09;13.43;;;4.63;;
9374;SDS011;4727;51.202;6.344;2022-12-24T04:33:36;16.97;;;5.50;;
9374;SDS011;4727;51.202;6.344;2022-12-24T04:36:02;15.00;;;5.00;;
9374;SDS011;4727;51.202;6.344;2022-12-24T04:38:29;14.83;;;5.00;;
9374;SDS011;4727;51.202;6.344;2022-12-24T04:43:51;13.37;;;5.00;;
9374;SDS011;4727;51.202;6.344;2022-12-24T04:46:21;14.67;;;5.10;;
9374;SDS011;4727;51.202;6.344;2022-12-24T04:48:48;18.83;;;4.93;;
9374;SDS011;4727;51.202;6.344;2022-12-24T04:51:15;17.13;;;4.97;;
9374;SDS011;4727;51.202;6.344;2022-12-24T04:53:41;15.73;;;5.03;;
9374;SDS011;4727;51.202;6.344;2022-12-24T04:56:09;16.43;;;5.33;;
9374;SDS011;4727;51.202;6.344;2022-12-24T04:58:36;14.57;;;5.03;;
9374;SDS011;4727;51.202;6.344;2022-12-24T05:01:03;16.23;;;5.17;;
9374;SDS011;4727;51.202;6.344;2022-12-24T05:03:29;13.53;;;4.93;;
9374;SDS011;4727;51.202;6.344;2022-12-24T05:06:02;19.70;;;4.90;;
9374;SDS011;4727;51.202;6.344;2022-12-24T05:08:28;21.50;;;5.30;;
9374;SDS011;4727;51.202;6.344;2022-12-24T05:10:57;14.00;;;4.77;;
9374;SDS011;4727;51.202;6.344;2022-12-24T05:13:23;12.97;;;5.47;;
9374;SDS011;4727;51.202;6.344;2022-12-24T05:15:49;17.77;;;4.60;;
9374;SDS011;4727;51.202;6.344;2022-12-24T05:18:15;12.17;;;4.63;;
9374;SDS011;4727;51.202;6.344;2022-12-24T05:20:42;16.37;;;5.43;;
9374;SDS011;4727;51.202;6.344;2022-12-24T05:23:21;13.43;;;4.20;;
9374;SDS011;4727;51.202;6.344;2022-12-24T05:26:16;20.53;;;4.83;;
9374;SDS011;4727;51.202;6.344;2022-12-24T05:28:52;19.13;;;5.27;;
9374;SDS011;4727;51.202;6.344;2022-12-24T05:31:18;16.53;;;4.73;;
9374;SDS011;4727;51.202;6.344;2022-12-24T05:33:44;17.33;;;5.27;;
9374;SDS011;4727;51.202;6.344;2022-12-24T05:36:10;17.77;;;4.97;;
9374;SDS011;4727;51.202;6.344;2022-12-24T05:38:36;15.70;;;5.00;;
9374;SDS011;4727;51.202;6.344;2022-12-24T05:41:03;16.97;;;5.07;;
9374;SDS011;4727;51.202;6.344;2022-12-24T05:43:29;24.43;;;5.17;;
9374;SDS011;4727;51.202;6.344;2022-12-24T05:45:59;16.57;;;4.80;;
9374;SDS011;4727;51.202;6.344;2022-12-24T05:48:25;13.57;;;4.67;;
9374;SDS011;4727;51.202;6.344;2022-12-24T05:50:51;18.27;;;5.50;;
9374;SDS011;4727;51.202;6.344;2022-12-24T05:53:17;16.90;;;5.37;;
9374;SDS011;4727;51.202;6.344;2022-12-24T05:55:43;21.70;;;5.73;;
9374;SDS011;4727;51.202;6.344;2022-12-24T05:58:09;20.43;;;6.37;;
9374;SDS011;4727;51.202;6.344;2022-12-24T06:00:35;19.50;;;5.80;;
9374;SDS011;4727;51.202;6.344;2022-12-24T06:03:01;21.10;;;6.27;;
9374;SDS011;4727;51.202;6.344;2022-12-24T06:05:27;19.00;;;5.90;;
9374;SDS011;4727;51.202;6.344;2022-12-24T06:07:53;19.83;;;6.13;;
9374;SDS011;4727;51.202;6.344;2022-12-24T06:10:19;21.37;;;6.17;;
9374;SDS011;4727;51.202;6.344;2022-12-24T06:12:45;23.50;;;6.03;;
9374;SDS011;4727;51.202;6.344;2022-12-24T06:15:11;18.57;;;6.23;;
9374;SDS011;4727;51.202;6.344;2022-12-24T06:17:37;23.23;;;7.57;;
9374;SDS011;4727;51.202;6.344;2022-12-24T06:20:03;24.40;;;6.17;;
9374;SDS011;4727;51.202;6.344;2022-12-24T06:22:29;22.03;;;6.60;;
9374;SDS011;4727;51.202;6.344;2022-12-24T06:24:55;23.20;;;6.37;;
9374;SDS011;4727;51.202;6.344;2022-12-24T06:27:21;22.67;;;6.53;;
9374;SDS011;4727;51.202;6.344;2022-12-24T06:29:47;18.73;;;7.50;;
9374;SDS011;4727;51.202;6.344;2022-12-24T06:32:13;24.13;;;6.53;;
9374;SDS011;4727;51.202;6.344;2022-12-24T06:34:39;29.47;;;7.03;;
9374;SDS011;4727;51.202;6.344;2022-12-24T06:37:05;25.03;;;6.50;;
9374;SDS011;4727;51.202;6.344;2022-12-24T06:39:31;23.03;;;6.10;;
9374;SDS011;4727;51.202;6.344;2022-12-24T06:41:57;26.77;;;7.23;;
9374;SDS011;4727;51.202;6.344;2022-12-24T06:44:23;17.20;;;5.80;;
9374;SDS011;4727;51.202;6.344;2022-12-24T06:46:50;29.07;;;6.83;;
9374;SDS011;4727;51.202;6.344;2022-12-24T06:49:16;19.97;;;5.37;;
9374;SDS011;4727;51.202;6.344;2022-12-24T06:51:42;24.60;;;7.17;;
9374;SDS011;4727;51.202;6.344;2022-12-24T06:54:08;26.80;;;6.00;;
9374;SDS011;4727;51.202;6.344;2022-12-24T06:56:34;22.43;;;5.77;;
9374;SDS011;4727;51.202;6.344;2022-12-24T06:59:00;19.70;;;5.70;;
9374;SDS011;4727;51.202;6.344;2022-12-24T07:01:26;17.83;;;5.83;;
9374;SDS011;4727;51.202;6.344;2022-12-24T07:03:52;26.30;;;6.47;;
9374;SDS011;4727;51.202;6.344;2022-12-24T07:06:25;28.13;;;7.30;;
9374;SDS011;4727;51.202;6.344;2022-12-24T07:08:51;24.63;;;6.30;;
9374;SDS011;4727;51.202;6.344;2022-12-24T07:11:18;19.20;;;6.17;;
9374;SDS011;4727;51.202;6.344;2022-12-24T07:13:45;24.47;;;6.63;;
9374;SDS011;4727;51.202;6.344;2022-12-24T07:16:11;20.23;;;6.67;;
9374;SDS011;4727;51.202;6.344;2022-12-24T07:18:37;21.17;;;6.07;;
9374;SDS011;4727;51.202;6.344;2022-12-24T07:21:03;24.57;;;7.33;;
9374;SDS011;4727;51.202;6.344;2022-12-24T07:23:31;30.77;;;8.23;;
9374;SDS011;4727;51.202;6.344;2022-12-24T07:26:00;29.10;;;8.03;;
9374;SDS011;4727;51.202;6.344;2022-12-24T07:28:27;20.70;;;5.90;;
9374;SDS011;4727;51.202;6.344;2022-12-24T07:30:53;26.57;;;6.53;;
9374;SDS011;4727;51.202;6.344;2022-12-24T07:33:19;25.87;;;6.70;;
9374;SDS011;4727;51.202;6.344;2022-12-24T07:35:45;22.37;;;6.10;;
9374;SDS011;4727;51.202;6.344;2022-12-24T07:38:11;27.93;;;6.03;;
9374;SDS011;4727;51.202;6.344;2022-12-24T07:40:37;24.60;;;7.30;;
9374;SDS011;4727;51.202;6.344;2022-12-24T07:43:03;30.37;;;6.87;;
9374;SDS011;4727;51.202;6.344;2022-12-24T07:45:29;24.03;;;7.23;;
9374;SDS011;4727;51.202;6.344;2022-12-24T07:47:55;17.57;;;7.53;;
9374;SDS011;4727;51.202;6.344;2022-12-24T07:50:21;21.33;;;5.80;;
9374;SDS011;4727;51.202;6.344;2022-12-24T07:52:47;30.43;;;7.23;;
9374;SDS011;4727;51.202;6.344;2022-12-24T07:55:13;24.53;;;7.80;;
9374;SDS011;4727;51.202;6.344;2022-12-24T07:57:39;26.43;;;7.27;;
9374;SDS011;4727;51.202;6.344;2022-12-24T08:00:05;21.07;;;5.90;;
9374;SDS011;4727;51.202;6.344;2022-12-24T08:02:31;31.53;;;6.77;;
9374;SDS011;4727;51.202;6.344;2022-12-24T08:04:57;28.93;;;6.37;;
9374;SDS011;4727;51.202;6.344;2022-12-24T08:07:23;26.27;;;6.23;;
9374;SDS011;4727;51.202;6.344;2022-12-24T08:09:49;26.57;;;6.93;;
9374;SDS011;4727;51.202;6.344;2022-12-24T08:12:15;19.33;;;6.43;;
9374;SDS011;4727;51.202;6.344;2022-12-24T08:14:41;29.57;;;10.20;;
9374;SDS011;4727;51.202;6.344;2022-12-24T08:17:07;16.67;;;6.13;;
9374;SDS011;4727;51.202;6.344;2022-12-24T08:19:33;25.53;;;6.70;;
9374;SDS011;4727;51.202;6.344;2022-12-24T08:21:59;22.33;;;6.53;;
9374;SDS011;4727;51.202;6.344;2022-12-24T08:24:25;26.60;;;6.47;;
9374;SDS011;4727;51.202;6.344;2022-12-24T08:26:51;26.43;;;7.10;;
9374;SDS011;4727;51.202;6.344;2022-12-24T08:29:17;22.23;;;6.23;;
9374;SDS011;4727;51.202;6.344;2022-12-24T08:31:43;24.07;;;6.97;;
9374;SDS011;4727;51.202;6.344;2022-12-24T08:34:09;23.63;;;6.20;;
9374;SDS011;4727;51.202;6.344;2022-12-24T08:36:35;23.13;;;6.47;;
9374;SDS011;4727;51.202;6.344;2022-12-24T08:39:01;23.93;;;6.53;;
9374;SDS011;4727;51.202;6.344;2022-12-24T08:41:30;25.00;;;7.13;;
9374;SDS011;4727;51.202;6.344;2022-12-24T08:43:56;27.17;;;6.77;;
9374;SDS011;4727;51.202;6.344;2022-12-24T08:46:22;20.67;;;6.90;;
9374;SDS011;4727;51.202;6.344;2022-12-24T08:48:48;25.70;;;6.93;;
9374;SDS011;4727;51.202;6.344;2022-12-24T08:51:14;20.70;;;6.87;;
9374;SDS011;4727;51.202;6.344;2022-12-24T08:53:40;24.10;;;6.97;;
9374;SDS011;4727;51.202;6.344;2022-12-24T08:56:07;28.83;;;8.17;;
9374;SDS011;4727;51.202;6.344;2022-12-24T08:58:34;20.93;;;5.97;;
9374;SDS011;4727;51.202;6.344;2022-12-24T09:01:00;26.97;;;7.50;;
9374;SDS011;4727;51.202;6.344;2022-12-24T09:03:26;25.17;;;6.80;;
9374;SDS011;4727;51.202;6.344;2022-12-24T09:05:52;21.57;;;6.23;;
9374;SDS011;4727;51.202;6.344;2022-12-24T09:08:19;22.33;;;5.90;;
9374;SDS011;4727;51.202;6.344;2022-12-24T09:10:45;24.33;;;7.07;;
9374;SDS011;4727;51.202;6.344;2022-12-24T09:13:11;19.23;;;6.60;;
9374;SDS011;4727;51.202;6.344;2022-12-24T09:15:37;22.77;;;6.67;;
9374;SDS011;4727;51.202;6.344;2022-12-24T09:18:03;23.20;;;6.77;;
9374;SDS011;4727;51.202;6.344;2022-12-24T09:20:29;23.53;;;7.10;;
9374;SDS011;4727;51.202;6.344;2022-12-24T09:22:55;29.13;;;7.50;;
9374;SDS011;4727;51.202;6.344;2022-12-24T09:25:21;26.17;;;7.10;;
9374;SDS011;4727;51.202;6.344;2022-12-24T09:27:47;20.50;;;6.20;;
9374;SDS011;4727;51.202;6.344;2022-12-24T09:30:13;25.27;;;6.20;;
9374;SDS011;4727;51.202;6.344;2022-12-24T09:32:39;26.30;;;7.77;;
9374;SDS011;4727;51.202;6.344;2022-12-24T09:35:05;25.90;;;7.80;;
9374;SDS011;4727;51.202;6.344;2022-12-24T09:37:31;25.33;;;7.33;;
9374;SDS011;4727;51.202;6.344;2022-12-24T09:39:57;30.83;;;8.70;;
9374;SDS011;4727;51.202;6.344;2022-12-24T09:42:46;26.57;;;7.40;;
9374;SDS011;4727;51.202;6.344;2022-12-24T09:45:19;21.53;;;7.50;;
9374;SDS011;4727;51.202;6.344;2022-12-24T09:47:48;26.27;;;8.73;;
9374;SDS011;4727;51.202;6.344;2022-12-24T09:52:51;29.10;;;8.47;;
9374;SDS011;4727;51.202;6.344;2022-12-24T09:57:52;23.77;;;6.80;;
9374;SDS011;4727;51.202;6.344;2022-12-24T10:00:20;32.20;;;8.07;;
9374;SDS011;4727;51.202;6.344;2022-12-24T10:02:47;32.40;;;7.73;;
9374;SDS011;4727;51.202;6.344;2022-12-24T10:05:13;27.23;;;6.67;;
9374;SDS011;4727;51.202;6.344;2022-12-24T10:07:47;27.17;;;7.40;;
9374;SDS011;4727;51.202;6.344;2022-12-24T10:10:29;30.47;;;7.33;;
9374;SDS011;4727;51.202;6.344;2022-12-24T10:13:08;32.87;;;7.20;;
9374;SDS011;4727;51.202;6.344;2022-12-24T10:15:45;26.90;;;6.97;;
9374;SDS011;4727;51.202;6.344;2022-12-24T10:18:20;22.00;;;6.57;;
9374;SDS011;4727;51.202;6.344;2022-12-24T10:26:01;24.73;;;7.27;;
9374;SDS011;4727;51.202;6.344;2022-12-24T10:28:35;39.13;;;15.53;;
9374;SDS011;4727;51.202;6.344;2022-12-24T10:31:04;29.43;;;7.53;;
9374;SDS011;4727;51.202;6.344;2022-12-24T10:33:41;25.13;;;7.33;;
9374;SDS011;4727;51.202;6.344;2022-12-24T10:36:15;28.17;;;7.60;;
9374;SDS011;4727;51.202;6.344;2022-12-24T10:38:42;25.77;;;7.47;;
9374;SDS011;4727;51.202;6.344;2022-12-24T10:41:08;19.40;;;6.37;;
9374;SDS011;4727;51.202;6.344;2022-12-24T10:43:35;31.63;;;7.93;;
9374;SDS011;4727;51.202;6.344;2022-12-24T10:46:05;31.83;;;9.03;;
9374;SDS011;4727;51.202;6.344;2022-12-24T10:54:10;26.63;;;7.03;;
9374;SDS011;4727;51.202;6.344;2022-12-24T10:56:48;23.67;;;6.73;;
9374;SDS011;4727;51.202;6.344;2022-12-24T11:01:59;26.97;;;7.90;;
9374;SDS011;4727;51.202;6.344;2022-12-24T11:04:27;32.20;;;7.73;;
9374;SDS011;4727;51.202;6.344;2022-12-24T11:06:54;25.30;;;7.20;;
9374;SDS011;4727;51.202;6.344;2022-12-24T11:09:26;26.23;;;7.23;;
9374;SDS011;4727;51.202;6.344;2022-12-24T11:11:53;20.63;;;7.23;;
9374;SDS011;4727;51.202;6.344;2022-12-24T11:17:05;24.53;;;7.60;;
9374;SDS011;4727;51.202;6.344;2022-12-24T11:19:35;22.27;;;7.57;;
9374;SDS011;4727;51.202;6.344;2022-12-24T11:22:04;24.93;;;6.97;;
9374;SDS011;4727;51.202;6.344;2022-12-24T11:24:34;28.90;;;8.17;;
9374;SDS011;4727;51.202;6.344;2022-12-24T11:29:45;20.93;;;6.50;;
9374;SDS011;4727;51.202;6.344;2022-12-24T11:32:20;27.27;;;7.90;;
9374;SDS011;4727;51.202;6.344;2022-12-24T11:34:47;23.83;;;6.27;;
9374;SDS011;4727;51.202;6.344;2022-12-24T11:37:16;23.77;;;6.70;;
9374;SDS011;4727;51.202;6.344;2022-12-24T11:39:49;25.43;;;7.00;;
9374;SDS011;4727;51.202;6.344;2022-12-24T11:45:31;23.60;;;6.13;;
9374;SDS011;4727;51.202;6.344;2022-12-24T11:47:59;29.23;;;7.57;;
9374;SDS011;4727;51.202;6.344;2022-12-24T11:50:34;27.73;;;6.90;;
9374;SDS011;4727;51.202;6.344;2022-12-24T11:55:34;23.80;;;7.27;;
9374;SDS011;4727;51.202;6.344;2022-12-24T11:58:05;20.97;;;6.87;;
9374;SDS011;4727;51.202;6.344;2022-12-24T12:00:36;24.73;;;7.57;;
9374;SDS011;4727;51.202;6.344;2022-12-24T12:03:03;21.33;;;6.47;;
9374;SDS011;4727;51.202;6.344;2022-12-24T12:05:34;27.73;;;6.80;;
9374;SDS011;4727;51.202;6.344;2022-12-24T12:08:09;25.60;;;7.00;;
9374;SDS011;4727;51.202;6.344;2022-12-24T12:10:38;20.77;;;6.00;;
9374;SDS011;4727;51.202;6.344;2022-12-24T12:13:07;30.20;;;7.20;;
9374;SDS011;4727;51.202;6.344;2022-12-24T12:15:59;22.40;;;6.63;;
9374;SDS011;4727;51.202;6.344;2022-12-24T12:18:25;21.60;;;7.40;;
9374;SDS011;4727;51.202;6.344;2022-12-24T12:20:55;24.77;;;6.67;;
9374;SDS011;4727;51.202;6.344;2022-12-24T12:23:24;28.03;;;6.73;;
9374;SDS011;4727;51.202;6.344;2022-12-24T12:25:51;24.07;;;7.50;;
9374;SDS011;4727;51.202;6.344;2022-12-24T12:33:49;24.97;;;6.90;;
9374;SDS011;4727;51.202;6.344;2022-12-24T12:36:18;22.73;;;6.90;;
9374;SDS011;4727;51.202;6.344;2022-12-24T12:38:45;25.53;;;7.33;;
9374;SDS011;4727;51.202;6.344;2022-12-24T12:41:18;21.80;;;7.00;;
9374;SDS011;4727;51.202;6.344;2022-12-24T12:46:21;23.43;;;6.83;;
9374;SDS011;4727;51.202;6.344;2022-12-24T12:48:56;28.57;;;7.10;;
9374;SDS011;4727;51.202;6.344;2022-12-24T12:56:34;19.23;;;6.00;;
9374;SDS011;4727;51.202;6.344;2022-12-24T13:01:33;20.83;;;6.00;;
9374;SDS011;4727;51.202;6.344;2022-12-24T13:22:15;18.63;;;6.13;;
9374;SDS011;4727;51.202;6.344;2022-12-24T13:24:49;16.80;;;5.40;;
9374;SDS011;4727;51.202;6.344;2022-12-24T13:27:16;16.87;;;5.37;;
9374;SDS011;4727;51.202;6.344;2022-12-24T13:29:50;13.70;;;5.37;;
9374;SDS011;4727;51.202;6.344;2022-12-24T13:34:47;18.00;;;6.73;;
9374;SDS011;4727;51.202;6.344;2022-12-24T13:37:19;17.83;;;6.10;;
9374;SDS011;4727;51.202;6.344;2022-12-24T13:50:37;22.63;;;5.87;;
9374;SDS011;4727;51.202;6.344;2022-12-24T13:53:05;29.17;;;9.63;;
9374;SDS011;4727;51.202;6.344;2022-12-24T13:55:31;19.43;;;7.50;;
9374;SDS011;4727;51.202;6.344;2022-12-24T13:57:58;19.30;;;5.90;;
9374;SDS011;4727;51.202;6.344;2022-12-24T14:07:55;15.93;;;4.80;;
9374;SDS011;4727;51.202;6.344;2022-12-24T14:10:24;28.67;;;6.70;;
9374;SDS011;4727;51.202;6.344;2022-12-24T14:12:51;22.90;;;6.97;;
9374;SDS011;4727;51.202;6.344;2022-12-24T14:18:02;23.50;;;6.77;;
9374;SDS011;4727;51.202;6.344;2022-12-24T14:20:28;33.23;;;12.50;;
9374;SDS011;4727;51.202;6.344;2022-12-24T14:22:56;18.07;;;5.87;;
9374;SDS011;4727;51.202;6.344;2022-12-24T14:25:22;24.37;;;6.87;;
9374;SDS011;4727;51.202;6.344;2022-12-24T14:27:49;19.73;;;7.63;;
9374;SDS011;4727;51.202;6.344;2022-12-24T14:32:42;21.63;;;6.70;;
9374;SDS011;4727;51.202;6.344;2022-12-24T14:35:19;22.67;;;8.53;;
9374;SDS011;4727;51.202;6.344;2022-12-24T14:38:10;22.57;;;8.60;;
9374;SDS011;4727;51.202;6.344;2022-12-24T14:43:23;23.57;;;7.37;;
9374;SDS011;4727;51.202;6.344;2022-12-24T14:51:24;24.70;;;8.80;;
9374;SDS011;4727;51.202;6.344;2022-12-24T14:56:27;23.73;;;7.00;;
9374;SDS011;4727;51.202;6.344;2022-12-24T14:58:53;21.93;;;6.83;;
9374;SDS011;4727;51.202;6.344;2022-12-24T15:01:24;25.07;;;7.97;;
9374;SDS011;4727;51.202;6.344;2022-12-24T15:04:01;21.73;;;7.17;;
9374;SDS011;4727;51.202;6.344;2022-12-24T15:06:28;15.70;;;6.17;;
9374;SDS011;4727;51.202;6.344;2022-12-24T15:08:56;23.10;;;7.17;;
9374;SDS011;4727;51.202;6.344;2022-12-24T15:11:22;20.50;;;8.63;;
9374;SDS011;4727;51.202;6.344;2022-12-24T15:13:49;32.03;;;9.03;;
9374;SDS011;4727;51.202;6.344;2022-12-24T15:16:20;38.83;;;18.23;;
9374;SDS011;4727;51.202;6.344;2022-12-24T15:18:50;38.83;;;21.83;;
9374;SDS011;4727;51.202;6.344;2022-12-24T15:21:36;30.50;;;17.07;;
9374;SDS011;4727;51.202;6.344;2022-12-24T15:27:31;26.83;;;11.77;;
9374;SDS011;4727;51.202;6.344;2022-12-24T15:29:57;32.03;;;14.90;;
9374;SDS011;4727;51.202;6.344;2022-12-24T15:32:23;32.47;;;10.13;;
9374;SDS011;4727;51.202;6.344;2022-12-24T15:34:52;29.90;;;9.70;;
9374;SDS011;4727;51.202;6.344;2022-12-24T15:37:20;26.17;;;8.37;;
9374;SDS011;4727;51.202;6.344;2022-12-24T15:42:22;26.37;;;6.83;;
9374;SDS011;4727;51.202;6.344;2022-12-24T15:45:01;17.97;;;6.80;;
9374;SDS011;4727;51.202;6.344;2022-12-24T15:47:29;16.13;;;6.27;;
9374;SDS011;4727;51.202;6.344;2022-12-24T15:50:02;19.83;;;6.23;;
9374;SDS011;4727;51.202;6.344;2022-12-24T15:52:28;20.67;;;6.47;;
9374;SDS011;4727;51.202;6.344;2022-12-24T15:54:54;22.60;;;6.47;;
9374;SDS011;4727;51.202;6.344;2022-12-24T15:57:24;29.97;;;7.43;;
9374;SDS011;4727;51.202;6.344;2022-12-24T15:59:54;20.73;;;6.73;;
9374;SDS011;4727;51.202;6.344;2022-12-24T16:04:49;21.30;;;7.17;;
9374;SDS011;4727;51.202;6.344;2022-12-24T16:07:25;22.20;;;8.30;;
9374;SDS011;4727;51.202;6.344;2022-12-24T16:10:29;21.10;;;7.33;;
9374;SDS011;4727;51.202;6.344;2022-12-24T16:12:54;28.90;;;8.53;;
9374;SDS011;4727;51.202;6.344;2022-12-24T16:15:20;33.63;;;9.40;;
9374;SDS011;4727;51.202;6.344;2022-12-24T16:17:47;21.40;;;7.97;;
9374;SDS011;4727;51.202;6.344;2022-12-24T16:20:19;27.30;;;8.73;;
9374;SDS011;4727;51.202;6.344;2022-12-24T16:22:45;26.10;;;12.00;;
9374;SDS011;4727;51.202;6.344;2022-12-24T16:25:25;31.70;;;12.80;;
9374;SDS011;4727;51.202;6.344;2022-12-24T16:27:51;25.80;;;11.80;;
9374;SDS011;4727;51.202;6.344;2022-12-24T16:30:17;37.47;;;15.00;;
9374;SDS011;4727;51.202;6.344;2022-12-24T16:32:44;35.87;;;16.23;;
9374;SDS011;4727;51.202;6.344;2022-12-24T16:35:31;33.93;;;16.57;;
9374;SDS011;4727;51.202;6.344;2022-12-24T16:38:00;38.00;;;15.93;;
9374;SDS011;4727;51.202;6.344;2022-12-24T16:40:27;36.80;;;16.67;;
9374;SDS011;4727;51.202;6.344;2022-12-24T16:42:54;26.60;;;14.60;;
9374;SDS011;4727;51.202;6.344;2022-12-24T16:45:39;36.77;;;12.67;;
9374;SDS011;4727;51.202;6.344;2022-12-24T16:48:05;35.67;;;10.90;;
9374;SDS011;4727;51.202;6.344;2022-12-24T16:50:33;27.60;;;10.37;;
9374;SDS011;4727;51.202;6.344;2022-12-24T16:52:59;31.67;;;10.70;;
9374;SDS011;4727;51.202;6.344;2022-12-24T16:55:25;27.77;;;9.93;;
9374;SDS011;4727;51.202;6.344;2022-12-24T16:57:51;29.10;;;9.60;;
9374;SDS011;4727;51.202;6.344;2022-12-24T17:00:18;28.23;;;9.20;;
9374;SDS011;4727;51.202;6.344;2022-12-24T17:02:45;30.17;;;9.57;;
9374;SDS011;4727;51.202;6.344;2022-12-24T17:05:11;28.17;;;9.13;;
9374;SDS011;4727;51.202;6.344;2022-12-24T17:07:37;28.00;;;10.73;;
9374;SDS011;4727;51.202;6.344;2022-12-24T17:10:04;27.33;;;11.47;;
9374;SDS011;4727;51.202;6.344;2022-12-24T17:12:30;27.73;;;12.03;;
9374;SDS011;4727;51.202;6.344;2022-12-24T17:14:56;32.73;;;13.83;;
9374;SDS011;4727;51.202;6.344;2022-12-24T17:17:23;34.13;;;12.67;;
9374;SDS011;4727;51.202;6.344;2022-12-24T17:19:49;31.40;;;12.33;;
9374;SDS011;4727;51.202;6.344;2022-12-24T17:22:15;29.03;;;11.90;;
9374;SDS011;4727;51.202;6.344;2022-12-24T17:24:41;30.27;;;10.50;;